Time;durP1;ratioP1;P1;durP2;ratioP2;P2;SDS_P1;SDS_P2;PMS_P1;PMS_P2;Temp;Humidity;BMP_temperature;BMP_pressure;BME280_temperature;BME280_humidity;BME280_pressure;Samples;Min_cycle;Max_cycle;Signal;HPM_P1;HPM_P2
2024/01/05 00:01:37;;;;;;;;;1.00;0.00;;;;;8.25;71.57;98844.38;6327895;20;1805573;-43
2024/01/05 00:04:05;;;;;;;;;0.00;0.00;;;;;8.26;70.93;98838.06;6325716;20;1809423;-44
2024/01/05 00:06:40;;;;;;;;;0.00;0.00;;;;;8.10;71.73;98835.53;6329446;20;1807719;-44
2024/01/05 00:09:09;;;;;;;;;2.00;0.00;;;;;8.20;71.22;98841.16;6328626;20;1800279;-42
2024/01/05 00:11:37;;;;;;;;;0.00;0.00;;;;;8.31;70.49;98841.28;6330796;20;1807624;-43
2024/01/05 00:14:06;;;;;;;;;0.00;0.00;;;;;8.25;70.49;98833.69;6326471;20;1797672;-44
2024/01/05 00:16:35;;;;;;;;;2.00;0.00;;;;;8.39;69.18;98847.03;6328383;20;1797676;-42
2024/01/05 00:19:03;;;;;;;;;0.00;0.00;;;;;8.31;70.20;98846.63;6327791;20;1799463;-43
2024/01/05 00:21:32;;;;;;;;;1.00;0.00;;;;;8.47;68.73;98854.53;6327636;20;1801818;-43
2024/01/05 00:24:01;;;;;;;;;0.00;0.00;;;;;8.54;68.11;98848.69;6325623;20;1807665;-43
2024/01/05 00:26:29;;;;;;;;;0.00;0.00;;;;;8.58;67.78;98852.00;6326815;20;1809739;-43
2024/01/05 00:28:58;;;;;;;;;2.00;0.00;;;;;8.59;67.60;98858.22;6330022;20;1813899;-44
2024/01/05 00:31:26;;;;;;;;;0.00;0.00;;;;;8.61;67.16;98856.28;6325892;20;1803483;-43
2024/01/05 00:33:55;;;;;;;;;0.00;0.00;;;;;8.69;66.98;98860.19;6325309;20;1807677;-42
2024/01/05 00:36:24;;;;;;;;;0.00;0.00;;;;;8.65;67.11;98863.16;6328786;20;1807804;-42
2024/01/05 00:38:52;;;;;;;;;0.75;0.00;;;;;8.64;66.56;98862.31;6327872;20;1810203;-45
2024/01/05 00:41:21;;;;;;;;;1.00;0.00;;;;;8.73;66.28;98860.81;6327238;20;1803495;-42
2024/01/05 00:43:49;;;;;;;;;0.00;0.00;;;;;8.67;66.82;98871.94;6325963;20;1803327;-43
2024/01/05 00:46:18;;;;;;;;;0.00;0.00;;;;;8.79;66.14;98863.06;6329913;20;1803431;-43
2024/01/05 00:48:46;;;;;;;;;0.00;0.00;;;;;8.83;65.90;98866.44;6327134;20;1803543;-43
2024/01/05 00:51:15;;;;;;;;;0.00;0.00;;;;;8.84;65.38;98858.28;6329544;20;1809790;-42
2024/01/05 00:53:44;;;;;;;;;1.00;0.00;;;;;8.95;65.04;98866.47;6325583;20;1809802;-43
2024/01/05 00:56:12;;;;;;;;;1.00;0.00;;;;;8.90;65.56;98859.66;6327281;20;1809802;-43
2024/01/05 00:58:41;;;;;;;;;0.00;0.00;;;;;8.94;64.73;98867.41;6326008;20;1803384;-43
2024/01/05 01:01:10;;;;;;;;;0.00;0.00;;;;;8.88;65.79;98867.81;6329375;20;1807718;-43
2024/01/05 01:03:38;;;;;;;;;0.00;0.00;;;;;8.88;65.57;98878.53;6325713;20;1802833;-44
2024/01/05 01:06:07;;;;;;;;;1.75;0.00;;;;;8.89;65.30;98876.72;6329030;20;1797156;-44
2024/01/05 01:08:35;;;;;;;;;0.00;0.00;;;;;8.87;65.40;98873.28;6326733;20;1807683;-46
2024/01/05 01:11:04;;;;;;;;;3.50;0.00;;;;;8.73;66.66;98890.25;6330090;20;1801458;-44
2024/01/05 01:13:33;;;;;;;;;0.25;0.00;;;;;8.67;66.89;98904.06;6322300;20;1807685;-43
2024/01/05 01:16:01;;;;;;;;;0.00;0.00;;;;;8.45;68.17;98904.59;6324711;20;1805585;-43
2024/01/05 01:18:30;;;;;;;;;1.00;0.00;;;;;8.57;67.36;98918.03;6325109;20;1802474;-43
2024/01/05 01:20:58;;;;;;;;;1.50;0.00;;;;;8.51;67.63;98918.44;6323974;20;1807813;-42
2024/01/05 01:23:28;;;;;;;;;0.00;0.00;;;;;8.53;67.95;98923.69;6327084;20;1804608;-44
2024/01/05 01:25:56;;;;;;;;;1.75;0.75;;;;;8.50;67.55;98918.53;6327138;20;1805222;-42
2024/01/05 01:28:25;;;;;;;;;0.00;0.00;;;;;8.41;68.51;98920.00;6326127;20;1804543;-43
2024/01/05 01:30:53;;;;;;;;;0.00;0.00;;;;;8.19;69.79;98920.50;6327080;20;1800264;-43
2024/01/05 01:33:22;;;;;;;;;0.00;0.00;;;;;8.25;69.80;98924.59;6326676;20;1809735;-44
2024/01/05 01:35:53;;;;;;;;;0.00;0.00;;;;;8.25;69.42;98933.47;6344690;20;2694087;-43
2024/01/05 01:38:22;;;;;;;;;1.00;1.00;;;;;8.24;69.20;98938.91;6294597;20;1809870;-43
2024/01/05 01:40:52;;;;;;;;;2.00;0.00;;;;;8.04;71.35;98946.41;6325401;20;1799292;-43
2024/01/05 01:43:27;;;;;;;;;0.25;0.25;;;;;7.76;72.81;98941.06;6322078;20;1803119;-43
2024/01/05 01:46:00;;;;;;;;;1.75;1.00;;;;;7.87;72.33;98947.47;6322113;20;1813937;-44
2024/01/05 01:48:29;;;;;;;;;0.00;0.00;;;;;7.83;72.63;98945.06;6324314;20;1799724;-42
2024/01/05 01:50:59;;;;;;;;;0.00;0.00;;;;;7.91;72.26;98948.97;6323866;20;1803403;-43
2024/01/05 01:53:28;;;;;;;;;0.25;0.25;;;;;7.75;72.17;98947.38;6325216;20;1803195;-45
2024/01/05 01:55:57;;;;;;;;;0.00;0.00;;;;;7.80;72.44;98948.78;6323565;20;1809754;-42
2024/01/05 01:58:26;;;;;;;;;0.00;0.00;;;;;7.78;72.42;98948.03;6321569;20;1802411;-43
2024/01/05 02:00:55;;;;;;;;;0.00;0.00;;;;;7.84;72.10;98944.09;6323503;20;1803520;-43
2024/01/05 02:03:24;;;;;;;;;0.00;0.00;;;;;7.80;71.94;98937.25;6325555;20;1800337;-43
2024/01/05 02:05:53;;;;;;;;;0.00;0.00;;;;;7.94;71.23;98934.56;6326584;20;1801787;-43
2024/01/05 02:08:21;;;;;;;;;3.25;1.50;;;;;7.89;70.95;98920.63;6326637;20;1807640;-42
2024/01/05 02:10:50;;;;;;;;;4.00;3.00;;;;;8.14;69.33;98896.72;6330217;20;1801497;-42
2024/01/05 02:13:19;;;;;;;;;1.00;1.00;;;;;8.06;69.31;98891.03;6332558;20;1800299;-42
2024/01/05 02:15:47;;;;;;;;;4.50;4.50;;;;;8.01;69.73;98884.25;6312611;20;2754529;-43
2024/01/05 02:18:16;;;;;;;;;4.00;4.00;;;;;7.98;70.51;98890.66;6294478;20;1815050;-43
2024/01/05 02:20:46;;;;;;;;;8.25;5.75;;;;;7.86;70.76;98896.78;6331418;20;1807759;-44
2024/01/05 02:23:30;;;;;;;;;0.50;0.00;;;;;7.95;70.94;98896.16;6329644;20;1804170;-43
2024/01/05 02:26:00;;;;;;;;;2.25;1.00;;;;;7.99;70.03;98897.72;6327140;20;1799240;-42
2024/01/05 02:28:28;;;;;;;;;4.00;3.00;;;;;7.94;70.34;98905.16;6312171;20;2739881;-44
2024/01/05 02:30:57;;;;;;;;;1.00;1.00;;;;;8.02;70.18;98896.66;6310660;20;1803518;-44
2024/01/05 02:33:26;;;;;;;;;2.00;2.00;;;;;8.13;68.81;98889.66;6330144;20;1813967;-43
2024/01/05 02:35:55;;;;;;;;;3.00;3.00;;;;;8.10;69.03;98889.00;6326531;20;1811874;-44
2024/01/05 02:38:22;;;;;;;;;11.50;8.50;;;;;7.91;69.80;98883.97;6311425;20;2764870;-43
2024/01/05 02:40:55;;;;;;;;;9.00;7.75;;;;;8.04;70.90;98879.56;6299214;20;1809796;-42
2024/01/05 02:43:24;;;;;;;;;5.50;5.00;;;;;7.98;70.24;98879.97;6330002;20;1811839;-43
2024/01/05 02:45:52;;;;;;;;;5.00;4.00;;;;;8.02;69.70;98880.63;6312871;20;2754920;-43
2024/01/05 02:48:19;;;;;;;;;12.00;7.00;;;;;7.87;70.44;98871.75;6283428;20;2433612;-43
2024/01/05 02:50:47;;;;;;;;;4.00;4.00;;;;;7.86;70.31;98875.41;6313926;20;2742073;-43
2024/01/05 02:53:15;;;;;;;;;8.00;4.00;;;;;7.74;71.81;98876.16;6311855;20;2750324;-43
2024/01/05 02:55:44;;;;;;;;;26.00;21.00;;;;;7.65;72.20;98873.09;6276230;20;2844011;-43
2024/01/05 02:58:12;;;;;;;;;3.00;3.00;;;;;7.83;71.36;98875.59;6297469;20;1825324;-43
2024/01/05 03:00:41;;;;;;;;;27.00;22.33;;;;;7.53;72.82;98884.59;6308659;20;3573430;-44
2024/01/05 03:03:10;;;;;;;;;27.00;24.00;;;;;7.38;74.05;98878.38;6276038;20;2852536;-43
2024/01/05 03:05:39;;;;;;;;;38.00;33.00;;;;;7.34;74.95;98878.63;6274773;20;2866948;-43
2024/01/05 03:08:09;;;;;;;;;40.00;34.33;;;;;7.07;75.51;98879.38;6273627;20;3593114;-43
2024/01/05 03:10:37;;;;;;;;;7.50;5.00;;;;;7.44;73.73;98880.66;6307969;20;2748323;-44
2024/01/05 03:13:05;;;;;;;;;12.50;11.00;;;;;7.06;75.45;98883.00;6270281;20;2786911;-44
2024/01/05 03:15:34;;;;;;;;;20.67;17.00;;;;;6.77;77.31;98888.25;6276042;20;3560665;-45
2024/01/05 03:18:04;;;;;;;;;15.00;11.40;;;;;6.53;79.03;98887.00;6298567;20;2794054;-43
2024/01/05 03:20:34;;;;;;;;;2.75;2.75;;;;;6.65;78.41;98896.97;6299213;20;1809682;-44
2024/01/05 03:23:01;;;;;;;;;8.00;7.00;;;;;6.32;80.09;98897.97;6312405;20;2741976;-42
2024/01/05 03:25:29;;;;;;;;;4.50;3.00;;;;;6.25;81.01;98904.59;6313903;20;2737878;-43
2024/01/05 03:27:57;;;;;;;;;19.50;14.50;;;;;7.07;76.47;98908.72;6312833;20;2808677;-44
2024/01/05 03:30:24;;;;;;;;;9.50;7.00;;;;;6.49;78.15;98917.47;6280316;20;2755573;-43
2024/01/05 03:32:53;;;;;;;;;4.00;4.00;;;;;6.43;80.60;98917.84;6279380;20;2748177;-46
2024/01/05 03:35:21;;;;;;;;;2.00;2.00;;;;;6.28;81.30;98925.75;6296654;20;1815758;-43
2024/01/05 03:37:50;;;;;;;;;0.00;0.00;;;;;6.36;80.70;98936.81;6329600;20;1803462;-43
2024/01/05 03:40:18;;;;;;;;;0.00;0.00;;;;;6.19;81.76;98939.59;6328272;20;1802959;-43
2024/01/05 03:42:47;;;;;;;;;0.00;0.00;;;;;6.21;82.30;98935.00;6327274;20;1803456;-42
2024/01/05 03:45:15;;;;;;;;;0.00;0.00;;;;;6.42;81.46;98937.44;6326383;20;1809812;-43
2024/01/05 03:47:44;;;;;;;;;0.00;0.00;;;;;6.75;79.46;98935.50;6329786;20;1802956;-42
2024/01/05 03:50:13;;;;;;;;;2.50;1.00;;;;;7.00;77.39;98923.38;6325765;20;1802474;-42
2024/01/05 03:52:41;;;;;;;;;2.25;2.25;;;;;7.12;76.45;98928.00;6327678;20;1811855;-44
2024/01/05 03:55:10;;;;;;;;;1.00;1.00;;;;;6.87;77.73;98914.38;6326193;20;1807629;-44
2024/01/05 03:57:38;;;;;;;;;3.00;3.00;;;;;6.92;77.97;98925.66;6311865;20;2755497;-43
2024/01/05 04:00:07;;;;;;;;;4.00;1.00;;;;;6.81;77.96;98921.78;6295640;20;1812654;-43
2024/01/05 04:02:36;;;;;;;;;1.00;1.00;;;;;6.77;78.94;98922.94;6323087;20;1809795;-43
2024/01/05 04:05:06;;;;;;;;;1.50;0.50;;;;;6.58;80.00;98924.94;6328426;20;1809699;-42
2024/01/05 04:07:34;;;;;;;;;1.00;1.00;;;;;6.73;78.56;98921.38;6313209;20;3435764;-42
2024/01/05 04:10:03;;;;;;;;;0.00;0.00;;;;;6.70;78.36;98924.22;6327137;20;1802377;-43
2024/01/05 04:12:32;;;;;;;;;2.00;0.00;;;;;5.93;81.63;98931.22;6326812;20;1803457;-43
2024/01/05 04:15:01;;;;;;;;;0.00;0.00;;;;;6.04;82.79;98933.31;6327651;20;1803448;-42
2024/01/05 04:17:29;;;;;;;;;0.75;0.75;;;;;5.84;84.18;98936.16;6330407;20;1803024;-44
2024/01/05 04:19:57;;;;;;;;;2.00;0.67;;;;;5.66;85.30;98938.00;6308295;20;3440880;-45
2024/01/05 04:22:30;;;;;;;;;0.75;0.75;;;;;5.96;84.35;98934.69;6297725;20;1809704;-43
2024/01/05 04:24:59;;;;;;;;;1.00;1.00;;;;;6.09;82.81;98935.72;6311638;20;3430485;-43
2024/01/05 04:27:28;;;;;;;;;1.00;1.00;;;;;5.55;83.91;98933.25;6329406;20;1809668;-43
2024/01/05 04:29:56;;;;;;;;;1.00;1.00;;;;;5.10;87.95;98936.53;6309411;20;3436727;-45
2024/01/05 04:32:24;;;;;;;;;3.25;1.00;;;;;4.71;90.48;98940.25;6329793;20;1815419;-43
2024/01/05 04:34:52;;;;;;;;;1.00;1.00;;;;;4.59;92.17;98934.63;6311588;20;3437890;-43
2024/01/05 04:37:20;;;;;;;;;3.50;1.00;;;;;4.73;91.45;98943.69;6296259;20;1812827;-44
2024/01/05 04:39:49;;;;;;;;;1.00;1.00;;;;;4.82;90.59;98964.53;6327552;20;1817900;-44
2024/01/05 04:42:17;;;;;;;;;0.33;0.33;;;;;4.51;91.94;98973.16;6310535;20;3439843;-45
2024/01/05 04:44:45;;;;;;;;;1.25;1.00;;;;;4.58;93.01;98969.22;6328744;20;1809727;-43
2024/01/05 04:47:13;;;;;;;;;1.00;1.00;;;;;4.95;91.66;98984.25;6311294;20;3432554;-44
2024/01/05 04:49:41;;;;;;;;;3.00;1.33;;;;;4.83;91.62;98974.22;6307720;20;3440924;-43
2024/01/05 04:52:09;;;;;;;;;1.00;1.00;;;;;4.76;91.62;98983.44;6277585;20;3435893;-44
2024/01/05 04:54:37;;;;;;;;;2.00;1.00;;;;;4.78;91.84;98986.88;6311550;20;3435680;-44
2024/01/05 04:57:05;;;;;;;;;1.00;1.00;;;;;4.71;91.76;98990.78;6312186;20;3435674;-43
2024/01/05 04:59:33;;;;;;;;;2.00;2.00;;;;;4.33;93.75;98983.72;6311644;20;3434681;-43
2024/01/05 05:02:01;;;;;;;;;5.00;2.00;;;;;4.33;96.39;98990.81;6307173;20;3454483;-43
2024/01/05 05:04:29;;;;;;;;;2.75;2.00;;;;;4.30;95.94;98990.97;6293887;20;1805471;-43
2024/01/05 05:06:58;;;;;;;;;2.00;2.00;;;;;4.18;95.99;98989.75;6326253;20;1815955;-43
2024/01/05 05:09:26;;;;;;;;;1.25;1.25;;;;;4.18;97.05;98987.94;6329081;20;1821668;-43
2024/01/05 05:11:55;;;;;;;;;4.00;3.00;;;;;4.23;97.85;98984.22;6325614;20;1818090;-42
2024/01/05 05:14:23;;;;;;;;;5.00;3.00;;;;;4.18;97.53;98982.63;6323162;20;1813874;-43
2024/01/05 05:16:52;;;;;;;;;2.50;2.50;;;;;4.21;97.19;98996.72;6326438;20;1813814;-44
2024/01/05 05:19:21;;;;;;;;;3.00;3.00;;;;;3.91;98.84;98995.41;6325637;20;1814885;-41
2024/01/05 05:21:49;;;;;;;;;4.00;4.00;;;;;3.83;99.21;99008.16;6308247;20;2753156;-43
2024/01/05 05:24:17;;;;;;;;;5.00;5.00;;;;;3.73;100.00;99017.47;6323761;20;1817082;-41
2024/01/05 05:26:46;;;;;;;;;5.75;4.50;;;;;4.03;97.72;98999.31;6326977;20;1812851;-43
2024/01/05 05:29:15;;;;;;;;;3.50;3.00;;;;;3.65;99.11;99020.47;6324596;20;1819141;-44
2024/01/05 05:31:43;;;;;;;;;6.50;3.00;;;;;4.35;96.69;99012.88;6325279;20;1817238;-43
2024/01/05 05:34:12;;;;;;;;;2.50;2.50;;;;;3.72;97.97;99013.09;6324035;20;1824286;-41
2024/01/05 05:36:41;;;;;;;;;7.25;6.00;;;;;3.46;99.74;99016.91;6327012;20;1823347;-43
2024/01/05 05:39:10;;;;;;;;;46.00;37.00;;;;;3.13;100.00;99020.03;6308098;20;2885771;-44
2024/01/05 05:41:40;;;;;;;;;39.67;36.33;;;;;3.26;100.00;99023.91;6302848;20;3614072;-43
2024/01/05 05:44:09;;;;;;;;;37.50;33.00;;;;;3.06;100.00;99026.56;6303112;20;2859731;-43
2024/01/05 05:46:38;;;;;;;;;26.00;19.67;;;;;3.12;100.00;99023.63;6273709;20;3566880;-43
2024/01/05 05:49:06;;;;;;;;;12.50;11.00;;;;;3.70;99.85;99031.75;6275418;20;2787895;-42
2024/01/05 05:51:35;;;;;;;;;13.00;11.00;;;;;3.50;100.00;99043.25;6277286;20;2788824;-43
2024/01/05 05:54:03;;;;;;;;;8.00;7.75;;;;;3.84;100.00;99038.22;6293286;20;1815431;-43
2024/01/05 05:56:31;;;;;;;;;7.00;6.00;;;;;3.52;100.00;99035.19;6306271;20;2748875;-43
2024/01/05 05:58:59;;;;;;;;;11.00;7.50;;;;;3.67;100.00;99045.16;6302481;20;2760734;-43
2024/01/05 06:01:27;;;;;;;;;11.00;7.00;;;;;3.81;100.00;99041.03;6273415;20;2769024;-44
2024/01/05 06:03:55;;;;;;;;;8.33;7.00;;;;;3.73;99.43;99036.06;6299386;20;1818545;-43
2024/01/05 06:06:24;;;;;;;;;7.50;6.00;;;;;3.69;99.80;99043.31;6323936;20;1819548;-44
2024/01/05 06:08:53;;;;;;;;;7.00;7.00;;;;;3.53;100.00;99036.94;6326649;20;1813806;-43
2024/01/05 06:11:26;;;;;;;;;15.00;15.00;;;;;3.66;100.00;99046.09;6303036;20;3550305;-43
2024/01/05 06:13:57;;;;;;;;;19.67;16.67;;;;;3.52;100.00;99051.13;6305488;20;3562766;-43
2024/01/05 06:16:25;;;;;;;;;23.00;15.00;;;;;3.71;100.00;99067.09;6306671;20;2823275;-43
2024/01/05 06:18:53;;;;;;;;;13.00;11.00;;;;;3.95;99.36;99062.53;6272415;20;2787823;-44
2024/01/05 06:21:21;;;;;;;;;7.25;5.75;;;;;4.17;98.53;99054.44;6292782;20;1818161;-43
2024/01/05 06:23:49;;;;;;;;;5.00;5.00;;;;;3.83;99.24;99066.59;6305505;20;2752369;-44
2024/01/05 06:26:18;;;;;;;;;2.67;1.00;;;;;4.25;98.18;99062.06;6307819;20;3456488;-43
2024/01/05 06:28:47;;;;;;;;;6.00;6.00;;;;;4.07;98.46;99061.97;6324021;20;1818008;-44
2024/01/05 06:31:15;;;;;;;;;9.00;7.25;;;;;3.83;99.35;99057.75;6326106;20;1812806;-43
2024/01/05 06:33:43;;;;;;;;;10.00;7.00;;;;;4.01;99.79;99059.59;6303909;20;2754933;-43
2024/01/05 06:36:11;;;;;;;;;11.00;8.50;;;;;4.56;97.29;99045.56;6273035;20;2766994;-44
2024/01/05 06:38:39;;;;;;;;;11.00;10.50;;;;;4.16;98.35;99050.94;6272898;20;2777391;-46
2024/01/05 06:41:06;;;;;;;;;10.00;10.00;;;;;4.62;96.73;99054.09;6273700;20;2777377;-43
2024/01/05 06:43:38;;;;;;;;;16.00;12.43;;;;;4.42;96.04;99053.31;6311329;20;1816573;-44
2024/01/05 06:46:06;;;;;;;;;16.33;13.33;;;;;4.32;98.76;99052.91;6305187;20;3525285;-45
2024/01/05 06:48:35;;;;;;;;;16.33;15.00;;;;;4.39;99.05;99056.97;6304160;20;3540917;-42
2024/01/05 06:51:05;;;;;;;;;13.20;12.00;;;;;4.45;98.45;99043.41;6327837;20;2794042;-43
2024/01/05 06:53:33;;;;;;;;;17.00;15.50;;;;;4.57;96.74;99049.94;6276651;20;2822191;-43
2024/01/05 06:56:01;;;;;;;;;16.33;13.33;;;;;4.70;96.80;99047.56;6281186;20;3531532;-43
2024/01/05 06:58:33;;;;;;;;;20.80;13.40;;;;;5.02;93.91;99054.81;6333184;20;2811796;-43
2024/01/05 07:01:01;;;;;;;;;13.00;13.00;;;;;5.44;91.38;99066.94;6275895;20;2789893;-45
2024/01/05 07:03:30;;;;;;;;;21.67;20.33;;;;;5.53;91.05;99064.75;6278669;20;3559652;-45
2024/01/05 07:05:59;;;;;;;;;53.00;43.00;;;;;5.35;91.34;99048.78;6279531;20;2856550;-44
2024/01/05 07:08:29;;;;;;;;;70.00;56.00;;;;;5.15;92.15;99035.59;6279912;20;3622173;-45
2024/01/05 07:10:57;;;;;;;;;55.50;42.50;;;;;5.21;92.24;99030.84;6309797;20;2862754;-43
2024/01/05 07:13:26;;;;;;;;;49.50;41.00;;;;;5.35;91.87;99032.81;6278225;20;2858698;-43
2024/01/05 07:15:55;;;;;;;;;56.50;44.00;;;;;5.37;92.52;99033.59;6275132;20;2845302;-43
2024/01/05 07:18:25;;;;;;;;;46.00;38.00;;;;;5.03;94.58;99037.94;6277671;20;2870273;-43
2024/01/05 07:20:54;;;;;;;;;33.50;28.50;;;;;5.49;92.87;99038.28;6309613;20;2855570;-44
2024/01/05 07:23:22;;;;;;;;;24.00;22.50;;;;;5.17;93.11;99033.72;6275370;20;2492043;-44
2024/01/05 07:25:50;;;;;;;;;22.67;19.33;;;;;5.43;91.88;99033.28;6279647;20;3569003;-43
2024/01/05 07:28:21;;;;;;;;;12.50;9.00;;;;;5.35;92.91;99037.28;6278037;20;2774402;-46
2024/01/05 07:30:50;;;;;;;;;16.33;14.67;;;;;5.50;91.36;99045.34;6275574;20;3548191;-43
2024/01/05 07:33:18;;;;;;;;;24.00;24.00;;;;;5.53;92.86;99043.44;6305833;20;2846185;-44
2024/01/05 07:35:48;;;;;;;;;15.67;15.00;;;;;5.45;91.84;99038.50;6279708;20;3535662;-45
2024/01/05 07:38:16;;;;;;;;;13.50;13.50;;;;;5.76;90.14;99040.44;6312265;20;2800319;-43
2024/01/05 07:40:43;;;;;;;;;11.00;11.00;;;;;5.48;90.98;99052.53;6280428;20;2790929;-43
2024/01/05 07:43:12;;;;;;;;;8.50;8.00;;;;;5.69;89.55;99049.72;6281772;20;2740147;-43
2024/01/05 07:45:41;;;;;;;;;19.00;13.33;;;;;5.58;89.40;99055.59;6308230;20;3542383;-44
2024/01/05 07:48:11;;;;;;;;;39.33;34.33;;;;;5.58;89.80;99044.94;6274925;20;2865926;-44
2024/01/05 07:50:42;;;;;;;;;13.33;9.33;;;;;5.65;89.01;99037.50;6351088;20;1819000;-43
2024/01/05 07:53:10;;;;;;;;;12.00;9.00;;;;;5.84;87.07;99040.91;6277613;20;2754430;-46
2024/01/05 07:55:39;;;;;;;;;14.20;10.80;;;;;5.60;88.61;99042.19;6299763;20;2789880;-46
2024/01/05 07:58:07;;;;;;;;;10.00;6.00;;;;;6.00;87.67;99040.13;6278784;20;2760809;-44
2024/01/05 08:00:36;;;;;;;;;16.33;15.00;;;;;5.91;88.19;99028.13;6278752;20;3547183;-45
2024/01/05 08:03:06;;;;;;;;;33.67;29.67;;;;;6.23;87.39;99031.75;6308012;20;2859771;-45
2024/01/05 08:05:35;;;;;;;;;28.50;20.50;;;;;6.18;86.51;99036.47;6303021;20;2841998;-44
2024/01/05 08:08:03;;;;;;;;;21.00;18.00;;;;;6.46;84.04;99037.66;6269693;20;2829836;-44
2024/01/05 08:10:32;;;;;;;;;20.33;17.67;;;;;6.51;83.60;99041.78;6277050;20;3557657;-45
2024/01/05 08:13:01;;;;;;;;;18.50;17.00;;;;;6.85;82.44;99041.72;6273866;20;2500300;-44
2024/01/05 08:15:30;;;;;;;;;19.67;16.67;;;;;6.94;81.17;99033.16;6276370;20;3553398;-44
2024/01/05 08:17:59;;;;;;;;;9.50;9.00;;;;;7.02;80.25;99031.75;6274503;20;2763831;-44
2024/01/05 08:20:27;;;;;;;;;12.00;11.50;;;;;7.44;77.88;99050.72;6279856;20;2786741;-43
2024/01/05 08:23:00;;;;;;;;;15.40;12.00;;;;;7.71;75.97;99050.88;6301140;20;2794054;-44
2024/01/05 08:25:28;;;;;;;;;23.00;19.00;;;;;7.91;74.32;99053.22;6282707;20;2714855;-44
2024/01/05 08:27:57;;;;;;;;;15.67;13.67;;;;;7.65;75.01;99060.13;6273222;20;3536769;-48
2024/01/05 08:30:25;;;;;;;;;13.00;12.00;;;;;7.69;75.11;99072.38;6274839;20;2800397;-47
2024/01/05 08:32:56;;;;;;;;;21.67;14.50;;;;;8.02;73.75;99059.72;6331085;20;3567109;-47
2024/01/05 08:35:26;;;;;;;;;11.00;11.00;;;;;8.18;72.48;99067.66;6334305;20;2791998;-47
2024/01/05 08:37:55;;;;;;;;;28.33;26.33;;;;;8.10;73.41;99060.09;6276309;20;3587782;-47
2024/01/05 08:40:27;;;;;;;;;36.33;31.00;;;;;8.09;73.08;99058.41;6274392;20;2869370;-48
2024/01/05 08:43:00;;;;;;;;;36.00;32.00;;;;;8.18;73.73;99067.66;6302212;20;3600322;-49
2024/01/05 08:45:30;;;;;;;;;32.00;25.67;;;;;8.26;74.01;99070.72;6307338;20;2862845;-48
2024/01/05 08:47:59;;;;;;;;;20.50;17.50;;;;;8.63;71.59;99080.00;6303053;20;2494110;-47
2024/01/05 08:50:28;;;;;;;;;15.00;15.00;;;;;8.33;73.27;99085.44;6277769;20;3522098;-48
2024/01/05 08:52:58;;;;;;;;;19.33;14.33;;;;;8.26;72.88;99078.75;6307438;20;3530626;-47
2024/01/05 08:55:27;;;;;;;;;25.33;21.33;;;;;8.42;71.67;99082.22;6277896;20;2844036;-47
2024/01/05 08:57:56;;;;;;;;;26.00;24.00;;;;;8.91;70.80;99081.78;6308641;20;2851434;-48
2024/01/05 09:00:26;;;;;;;;;28.67;26.00;;;;;8.72;70.55;99094.63;6279312;20;2858726;-49
2024/01/05 09:02:55;;;;;;;;;27.67;25.67;;;;;8.81;69.72;99087.81;6308882;20;3598388;-46
2024/01/05 09:05:24;;;;;;;;;26.00;23.00;;;;;9.19;69.61;99083.53;6278010;20;2844300;-47
2024/01/05 09:07:54;;;;;;;;;38.00;33.33;;;;;9.17;69.42;99089.94;6277422;20;3619182;-46
2024/01/05 09:10:23;;;;;;;;;29.00;24.50;;;;;9.11;69.05;99091.22;6309141;20;2825261;-48
2024/01/05 09:12:51;;;;;;;;;20.67;18.00;;;;;9.57;67.74;99090.84;6277774;20;3572132;-48
2024/01/05 09:15:20;;;;;;;;;15.50;13.50;;;;;9.17;68.19;99089.94;6280179;20;2807568;-48
2024/01/05 09:17:49;;;;;;;;;15.67;10.67;;;;;9.60;67.90;99087.09;6278890;20;3528423;-48
2024/01/05 09:20:17;;;;;;;;;18.50;15.00;;;;;9.49;67.15;99085.13;6310044;20;2801397;-48
2024/01/05 09:22:46;;;;;;;;;36.50;33.00;;;;;9.50;67.92;99086.00;6275118;20;2853949;-48
2024/01/05 09:25:15;;;;;;;;;40.50;34.50;;;;;9.97;66.74;99089.94;6276597;20;2843045;-49
2024/01/05 09:27:43;;;;;;;;;32.50;28.50;;;;;9.74;67.48;99089.72;6277419;20;2859652;-46
2024/01/05 09:30:12;;;;;;;;;18.00;15.67;;;;;10.29;65.92;99091.31;6278561;20;2823206;-47
2024/01/05 09:32:41;;;;;;;;;15.67;12.33;;;;;10.43;63.64;99094.84;6307499;20;3539864;-50
2024/01/05 09:35:09;;;;;;;;;21.00;16.00;;;;;10.36;64.05;99085.50;6310928;20;2830487;-47
2024/01/05 09:37:37;;;;;;;;;14.67;11.67;;;;;10.22;64.02;99079.25;6278211;20;3516936;-47
2024/01/05 09:40:10;;;;;;;;;10.33;10.00;;;;;10.50;64.84;99078.16;6305340;20;2787904;-47
2024/01/05 09:42:41;;;;;;;;;8.00;7.00;;;;;10.28;64.27;99084.22;6307687;20;2748165;-49
2024/01/05 09:45:13;;;;;;;;;9.14;8.71;;;;;10.85;61.82;99081.97;6318923;20;1798266;-50
2024/01/05 09:47:42;;;;;;;;;8.00;8.00;;;;;11.15;61.12;99069.00;6307892;20;2736817;-47
2024/01/05 09:50:12;;;;;;;;;6.00;6.00;;;;;11.19;60.25;99078.56;6275149;20;2737774;-47
2024/01/05 09:52:40;;;;;;;;;5.00;5.00;;;;;10.89;61.77;99078.13;6277929;20;2745179;-46
2024/01/05 09:55:08;;;;;;;;;5.50;5.50;;;;;10.47;63.99;99078.41;6276390;20;2748169;-49
2024/01/05 09:57:40;;;;;;;;;4.00;3.00;;;;;10.31;63.86;99078.63;6278484;20;2748272;-49
2024/01/05 10:00:13;;;;;;;;;4.00;4.00;;;;;10.95;62.26;99074.97;6280136;20;2745514;-48
2024/01/05 10:02:57;;;;;;;;;3.00;3.00;;;;;10.85;60.93;99081.97;6276126;20;2739874;-48
2024/01/05 10:05:26;;;;;;;;;3.50;2.00;;;;;11.16;60.89;99086.88;6294331;20;1813937;-48
2024/01/05 10:07:54;;;;;;;;;4.00;2.50;;;;;10.60;62.67;99074.84;6310178;20;2756547;-46
2024/01/05 10:10:51;;;;;;;;;4.00;2.00;;;;;11.01;62.00;99066.50;6278282;20;2746106;-48
2024/01/05 10:13:19;;;;;;;;;2.50;2.00;;;;;10.61;61.07;99064.00;6276945;20;2744034;-49
2024/01/05 10:16:00;;;;;;;;;3.00;2.50;;;;;11.28;59.93;99060.03;6278182;20;2752507;-46
2024/01/05 10:18:29;;;;;;;;;2.00;2.00;;;;;11.12;57.95;99053.13;6280105;20;2741951;-46
2024/01/05 10:21:09;;;;;;;;;0.00;0.00;;;;;10.82;58.52;99050.88;6297218;20;1809610;-47
2024/01/05 10:23:44;;;;;;;;;2.75;1.75;;;;;11.27;58.16;99045.75;6322791;20;1786772;-46
2024/01/05 10:26:18;;;;;;;;;4.50;3.75;;;;;11.32;57.98;99037.31;6326671;20;1806634;-49
2024/01/05 10:28:48;;;;;;;;;5.00;3.00;;;;;11.71;56.97;99029.91;6313465;20;2748390;-46
2024/01/05 10:31:17;;;;;;;;;4.00;3.00;;;;;11.60;57.49;99020.81;6284128;20;2753447;-46
2024/01/05 10:33:54;;;;;;;;;4.00;4.00;;;;;11.77;57.61;99027.59;6280085;20;2754658;-47
2024/01/05 10:36:25;;;;;;;;;3.00;3.00;;;;;11.32;58.05;99015.81;6301253;20;1814003;-47
2024/01/05 10:38:53;;;;;;;;;3.00;3.00;;;;;11.92;57.45;99009.44;6315442;20;2756493;-46
2024/01/05 10:41:22;;;;;;;;;5.00;3.50;;;;;11.78;56.97;99010.50;6300901;20;1818105;-49
2024/01/05 10:43:50;;;;;;;;;5.00;4.00;;;;;11.83;57.23;99004.75;6311953;20;2739900;-50
2024/01/05 10:46:20;;;;;;;;;3.00;3.00;;;;;12.03;57.81;98998.72;6283660;20;2745113;-48
2024/01/05 10:48:48;;;;;;;;;8.00;5.00;;;;;11.99;57.03;98986.47;6283534;20;2752433;-47
2024/01/05 10:51:23;;;;;;;;;3.00;2.00;;;;;12.08;56.29;98988.44;6279786;20;2753431;-47
2024/01/05 10:53:52;;;;;;;;;4.50;4.50;;;;;11.96;56.49;98986.72;6283724;20;2750285;-46
2024/01/05 10:56:20;;;;;;;;;4.00;4.00;;;;;12.36;55.80;98985.38;6282152;20;2752411;-50
2024/01/05 10:58:49;;;;;;;;;5.00;2.00;;;;;12.20;56.09;98975.00;6280571;20;2752412;-45
2024/01/05 11:01:21;;;;;;;;;2.00;2.00;;;;;12.41;55.17;98973.25;6280302;20;2737887;-44
2024/01/05 11:03:50;;;;;;;;;4.00;2.50;;;;;12.05;54.70;98969.81;6280643;20;2751321;-44
2024/01/05 11:06:19;;;;;;;;;3.50;3.00;;;;;12.41;54.43;98965.19;6280430;20;2742018;-46
2024/01/05 11:08:53;;;;;;;;;3.00;1.50;;;;;12.57;53.53;98967.50;6283111;20;2734691;-46
2024/01/05 11:11:56;;;;;;;;;3.00;3.00;;;;;12.51;53.54;98960.78;6286161;20;2736816;-48
2024/01/05 11:14:50;;;;;;;;;5.50;5.00;;;;;12.20;54.32;98961.53;6277270;20;2740997;-50
2024/01/05 11:17:55;;;;;;;;;2.00;2.00;;;;;12.28;54.09;98953.69;6281678;20;2746119;-45
2024/01/05 11:20:47;;;;;;;;;3.00;3.00;;;;;12.47;54.70;98948.53;6282960;20;2744006;-45
2024/01/05 11:23:17;;;;;;;;;4.25;4.00;;;;;12.35;54.45;98946.84;6296080;20;1806727;-45
2024/01/05 11:25:45;;;;;;;;;7.00;6.00;;;;;12.39;55.23;98942.91;6310288;20;2742983;-46
2024/01/05 11:28:36;;;;;;;;;9.00;8.00;;;;;12.61;55.42;98938.47;6305988;20;2757605;-46